createdAt,value
2023-11-03T00:01:57.203Z,95288.59
2023-11-03T00:07:00.041Z,95294.13
2023-11-03T00:12:04.133Z,95283.50
2023-11-03T00:17:09.024Z,95285.94
2023-11-03T00:22:11.892Z,95302.50
2023-11-03T00:27:15.591Z,95324.78
2023-11-03T00:32:19.877Z,95332.13
2023-11-03T00:37:22.693Z,95334.16
2023-11-03T00:42:25.485Z,95342.56
2023-11-03T00:47:29.629Z,95337.84
2023-11-03T00:52:32.470Z,95328.22
2023-11-03T00:57:37.907Z,95330.88
2023-11-03T01:02:44.893Z,95336.38
2023-11-03T01:07:48.047Z,95342.97
2023-11-03T01:12:52.261Z,95337.66
2023-11-03T01:17:56.587Z,95327.03
2023-11-03T01:23:00.329Z,95323.97
2023-11-03T01:28:03.197Z,95316.00
2023-11-03T01:33:07.889Z,95320.28
2023-11-03T01:38:11.825Z,95329.69
2023-11-03T01:43:15.462Z,95320.91
2023-11-03T01:48:20.059Z,95312.94
2023-11-03T01:53:23.184Z,95328.66
2023-11-03T01:58:26.984Z,95318.03
2023-11-03T02:03:32.091Z,95308.44
2023-11-03T02:08:35.607Z,95312.69
2023-11-03T02:13:38.535Z,95308.56
2023-11-03T02:18:42.764Z,95306.13
2023-11-03T02:23:46.974Z,95329.66
2023-11-03T02:28:50.675Z,95331.47
2023-11-03T02:33:53.558Z,95329.22
2023-11-03T02:38:57.894Z,95329.59
2023-11-03T02:44:00.711Z,95331.25
2023-11-03T02:49:04.162Z,95339.44
2023-11-03T02:54:09.247Z,95346.38
2023-11-03T02:59:13.772Z,95346.56
2023-11-03T03:04:16.614Z,95347.78
2023-11-03T03:09:20.868Z,95340.22
2023-11-03T03:14:24.213Z,95340.41
2023-11-03T03:19:27.204Z,95345.72
2023-11-03T03:24:31.413Z,95350.81
2023-11-03T03:29:34.212Z,95344.25
2023-11-03T03:34:37.471Z,95355.50
2023-11-03T03:39:41.764Z,95384.09
2023-11-03T03:44:46.758Z,95377.56
2023-11-03T03:49:49.551Z,95388.78
2023-11-03T03:54:53.685Z,95388.38
2023-11-03T03:59:56.629Z,95394.09
2023-11-03T04:05:02.238Z,95385.34
2023-11-03T04:10:07.995Z,95385.72
2023-11-03T04:15:11.897Z,95387.38
2023-11-03T04:20:15.520Z,95394.50
2023-11-03T04:25:20.012Z,95382.84
2023-11-03T04:30:22.949Z,95392.97
2023-11-03T04:35:25.757Z,95396.03
2023-11-03T04:40:32.557Z,95407.47
2023-11-03T04:45:35.489Z,95407.47
2023-11-03T04:50:38.651Z,95411.94
2023-11-03T04:55:42.808Z,95411.31
2023-11-03T05:00:46.261Z,95411.31
2023-11-03T05:05:49.416Z,95419.69
2023-11-03T05:10:53.544Z,95409.44
2023-11-03T05:15:56.721Z,95403.69
2023-11-03T05:21:00.139Z,95403.50
2023-11-03T05:26:04.877Z,95407.19
2023-11-03T05:31:08.501Z,95406.34
2023-11-03T05:36:12.662Z,95406.97
2023-11-03T05:41:17.390Z,95409.28
2023-11-03T05:46:20.498Z,95401.88
2023-11-03T05:51:23.377Z,95409.44
2023-11-03T05:56:27.934Z,95418.44
2023-11-03T06:01:34.120Z,95415.16
2023-11-03T06:06:36.991Z,95423.91
2023-11-03T06:11:41.589Z,95438.81
2023-11-03T06:16:44.623Z,95452.06
2023-11-03T06:21:47.797Z,95460.66
2023-11-03T06:26:52.554Z,95450.47
2023-11-03T06:31:55.750Z,95452.94
2023-11-03T06:36:59.621Z,95447.19
2023-11-03T06:42:06.910Z,95446.56
2023-11-03T06:47:09.791Z,95464.34
2023-11-03T06:52:12.973Z,95481.28
2023-11-03T06:57:18.173Z,95504.53
2023-11-03T07:02:21.684Z,95507.19
2023-11-03T07:07:24.588Z,95510.84
2023-11-03T07:12:28.951Z,95521.00
2023-11-03T07:17:31.903Z,95551.28
2023-11-03T07:22:35.394Z,95560.94
2023-11-03T07:27:39.751Z,95575.59
2023-11-03T07:32:46.207Z,95563.66
2023-11-03T07:37:49.204Z,95551.72
2023-11-03T07:42:54.408Z,95561.72
2023-11-03T07:47:57.577Z,95565.63
2023-11-03T07:53:00.465Z,95575.41
2023-11-03T07:58:06.870Z,95581.91
2023-11-03T08:03:09.851Z,95569.09
2023-11-03T08:08:15.215Z,95574.38
2023-11-03T08:13:20.429Z,95587.13
2023-11-03T08:18:24.497Z,95589.28
2023-11-03T08:23:27.429Z,95599.50
2023-11-03T08:28:33.869Z,95617.34
2023-11-03T08:33:36.698Z,95614.59
2023-11-03T08:38:39.602Z,95613.97
2023-11-03T08:43:45.209Z,95618.63
2023-11-03T08:48:49.242Z,95623.91
2023-11-03T08:53:52.209Z,95622.03
2023-11-03T08:58:58.170Z,95618.94
2023-11-03T09:04:03.019Z,95631.47
2023-11-03T09:09:07.404Z,95626.13
2023-11-03T09:14:12.932Z,95641.19
2023-11-03T09:19:15.806Z,95654.88
2023-11-03T09:24:18.891Z,95661.78
2023-11-03T09:29:24.096Z,95673.25
2023-11-03T09:34:30.389Z,95665.50
2023-11-03T09:39:36.998Z,95673.41
2023-11-03T09:44:42.081Z,95675.41
2023-11-03T09:49:45.328Z,95682.84
2023-11-03T09:54:48.843Z,95689.47
2023-11-03T09:59:54.878Z,95679.13
2023-11-03T10:04:57.959Z,95686.31
2023-11-03T10:10:01.500Z,95681.63
2023-11-03T10:15:10.883Z,95673.84
2023-11-03T10:20:13.977Z,95676.59
2023-11-03T10:25:16.974Z,95664.34
2023-11-03T10:30:21.603Z,95664.72
2023-11-03T10:35:24.822Z,95664.28
2023-11-03T10:40:27.786Z,95676.69
2023-11-03T10:45:34.615Z,95678.91
2023-11-03T10:50:44.242Z,95682.44
2023-11-03T10:55:57.085Z,95688.00
2023-11-03T11:01:07.703Z,95707.66
2023-11-03T11:06:21.832Z,95687.06
2023-11-03T11:11:27.975Z,95700.13
2023-11-03T11:16:34.689Z,95705.75
2023-11-03T11:21:45.640Z,95708.03
2023-11-03T11:26:50.655Z,95701.56
2023-11-03T11:32:03.937Z,95686.75
2023-11-03T11:37:31.781Z,95705.38
2023-11-03T11:42:37.076Z,95698.53
2023-11-03T11:47:46.311Z,95703.56
2023-11-03T11:52:50.945Z,95703.38
2023-11-03T11:57:56.381Z,95696.75
2023-11-03T12:03:01.197Z,95702.09
2023-11-03T12:08:05.131Z,95703.88
2023-11-03T12:13:11.068Z,95703.31
2023-11-03T12:18:17.697Z,95716.78
2023-11-03T12:23:20.532Z,95709.97
2023-11-03T12:28:25.007Z,95706.47
2023-11-03T12:33:29.379Z,95716.75
2023-11-03T12:38:32.223Z,95713.06
2023-11-03T12:43:37.074Z,95719.19
2023-11-03T12:48:41.659Z,95714.88
2023-11-03T12:53:48.627Z,95720.44
2023-11-03T12:58:51.451Z,95722.28
2023-11-03T13:03:55.646Z,95723.28
2023-11-03T13:08:58.713Z,95724.34
2023-11-03T13:14:01.520Z,95723.31
2023-11-03T13:19:06.826Z,95730.09
2023-11-03T13:24:12.616Z,95730.47
2023-11-03T13:29:16.189Z,95725.31
2023-11-03T13:34:22.247Z,95727.00
2023-11-03T13:39:25.281Z,95720.75
2023-11-03T13:44:28.105Z,95727.75
2023-11-03T13:49:35.741Z,95727.97
2023-11-03T13:54:38.923Z,95739.50
2023-11-03T13:59:41.846Z,95742.72
2023-11-03T14:04:46.302Z,95761.56
2023-11-03T14:09:49.744Z,95764.06
2023-11-03T14:14:54.381Z,95763.19
2023-11-03T14:19:58.550Z,95772.81
2023-11-03T14:25:01.479Z,95760.91
2023-11-03T14:30:04.430Z,95765.44
2023-11-03T14:35:11.719Z,95775.41
2023-11-03T14:40:16.847Z,95775.97
2023-11-03T14:45:21.692Z,95776.00
2023-11-03T14:50:27.196Z,95787.47
2023-11-03T14:55:30.392Z,95797.22
2023-11-03T15:00:36.651Z,95798.41
2023-11-03T15:05:42.132Z,95808.66
2023-11-03T15:10:47.245Z,95806.53
2023-11-03T15:15:53.193Z,95806.50
2023-11-03T15:20:58.073Z,95810.03
2023-11-03T15:26:01.173Z,95822.63
2023-11-03T15:31:06.642Z,95832.56
2023-11-03T15:36:11.752Z,95831.75
2023-11-03T15:41:14.745Z,95834.94
2023-11-03T15:46:20.581Z,95847.69
2023-11-03T15:51:24.859Z,95843.19
2023-11-03T15:56:27.787Z,95856.13
2023-11-03T16:01:30.723Z,95856.88
2023-11-03T16:06:35.004Z,95865.88
2023-11-03T16:11:41.976Z,95881.28
2023-11-03T16:16:45.002Z,95882.78
2023-11-03T16:21:49.696Z,95880.19
2023-11-03T16:26:52.665Z,95880.00
2023-11-03T16:31:56.149Z,95894.00
2023-11-03T16:37:02.201Z,95905.72
2023-11-03T16:42:05.613Z,95909.22
2023-11-03T16:47:08.485Z,95916.06
2023-11-03T16:52:12.766Z,95921.47
2023-11-03T16:57:16.041Z,95919.28
2023-11-03T17:02:19.869Z,95929.19
2023-11-03T17:07:25.082Z,95923.06
2023-11-03T17:12:27.999Z,95915.25
2023-11-03T17:17:30.982Z,95919.44
2023-11-03T17:22:35.589Z,95931.59
2023-11-03T17:27:39.107Z,95929.19
2023-11-03T17:32:43.898Z,95933.78
2023-11-03T17:37:48.571Z,95937.25
2023-11-03T17:42:52.020Z,95937.44
2023-11-03T17:47:55.037Z,95934.47
2023-11-03T17:52:59.349Z,95938.59
2023-11-03T17:58:04.297Z,95929.13
2023-11-03T18:03:07.686Z,95930.59
2023-11-03T18:08:12.879Z,95940.03
2023-11-03T18:13:16.326Z,95940.84
2023-11-03T18:18:19.176Z,95934.75
2023-11-03T18:23:23.324Z,95942.59
2023-11-03T18:28:27.188Z,95924.53
2023-11-03T18:33:30.988Z,95933.00
2023-11-03T18:38:35.208Z,95934.66
2023-11-03T18:43:38.084Z,95934.00
2023-11-03T18:48:43.246Z,95930.88
2023-11-03T18:55:22.862Z,95930.09
2023-11-03T19:00:22.173Z,95937.25
2023-11-03T19:05:37.474Z,95939.78
2023-11-03T19:09:58.133Z,95940.63
2023-11-03T19:15:01.203Z,95950.56
2023-11-03T19:20:04.826Z,95945.91
2023-11-03T19:25:11.830Z,95955.00
2023-11-03T19:30:16.356Z,95957.50
2023-11-03T19:35:19.908Z,95957.31
2023-11-03T19:40:24.127Z,95963.41
2023-11-03T19:45:28.109Z,95968.56
2023-11-03T19:50:33.537Z,95974.81
2023-11-03T19:55:37.931Z,95985.09
2023-11-03T20:00:43.790Z,95987.75
2023-11-03T20:05:47.372Z,95992.56
2023-11-03T20:10:51.911Z,95990.59
2023-11-03T20:15:55.263Z,95986.75
2023-11-03T20:20:59.719Z,95995.56
2023-11-03T20:26:04.097Z,95990.13
2023-11-03T20:31:07.074Z,95985.53
2023-11-03T20:36:11.252Z,95975.78
2023-11-03T20:41:15.624Z,95982.72
2023-11-03T20:46:18.380Z,95984.06
2023-11-03T20:51:22.128Z,95985.72
2023-11-03T20:56:27.582Z,95987.06
2023-11-03T21:01:30.704Z,95984.72
2023-11-03T21:06:36.694Z,95994.81
2023-11-03T21:11:41.169Z,95994.16
2023-11-03T21:16:44.784Z,95982.09
2023-11-03T21:21:48.405Z,95988.53
2023-11-03T21:26:53.554Z,95973.00
2023-11-03T21:31:56.457Z,95969.84
2023-11-03T21:37:00.149Z,95965.22
2023-11-03T21:42:05.655Z,95954.94
2023-11-03T21:47:08.635Z,95960.09
2023-11-03T21:52:11.538Z,95963.72
2023-11-03T21:57:15.843Z,95952.78
2023-11-03T22:02:18.765Z,95951.97
2023-11-03T22:07:21.543Z,95954.94
2023-11-03T22:12:25.778Z,95953.41
2023-11-03T22:17:28.608Z,95956.75
2023-11-03T22:22:34.633Z,95959.22
2023-11-03T22:27:38.995Z,95956.06
2023-11-03T22:32:42.101Z,95949.78
2023-11-03T22:37:45.026Z,95950.59
2023-11-03T22:42:49.349Z,95951.25
2023-11-03T22:47:53.813Z,95964.13
2023-11-03T22:52:56.732Z,95961.66
2023-11-03T22:58:01.733Z,95971.41
2023-11-03T23:03:05.881Z,95974.19
2023-11-03T23:08:08.794Z,95966.44
2023-11-03T23:13:12.937Z,95966.13
2023-11-03T23:18:15.960Z,95966.78
2023-11-03T23:23:19.133Z,95974.53
2023-11-03T23:28:23.284Z,95976.19
2023-11-03T23:33:26.509Z,95973.72
2023-11-03T23:38:29.366Z,95981.84
2023-11-03T23:43:33.503Z,95987.44
2023-11-03T23:48:36.551Z,95988.28
2023-11-03T23:53:40.112Z,95983.09
2023-11-03T23:58:48.527Z,95977.13
